createdAt,value
2023-04-21T00:05:20.014Z,0
2023-04-21T00:11:39.783Z,0
2023-04-21T00:18:02.808Z,0
2023-04-21T00:24:22.814Z,0
2023-04-21T00:30:45.781Z,0
2023-04-21T00:37:05.932Z,0
2023-04-21T00:43:28.801Z,0
2023-04-21T00:49:48.759Z,0
2023-04-21T00:56:11.827Z,0
2023-04-21T01:02:31.826Z,0
2023-04-21T01:08:54.768Z,0
2023-04-21T01:15:14.828Z,0
2023-04-21T01:21:37.779Z,0
2023-04-21T01:27:57.835Z,0
2023-04-21T01:34:20.770Z,0
2023-04-21T01:40:40.829Z,0
2023-04-21T01:47:03.756Z,0
2023-04-21T01:53:23.839Z,0
2023-04-21T01:59:46.773Z,0
2023-04-21T02:06:06.787Z,0
2023-04-21T02:12:29.775Z,0
2023-04-21T02:18:49.760Z,0
2023-04-21T02:25:12.818Z,0
2023-04-21T02:31:34.904Z,0
2023-04-21T02:37:55.835Z,0
2023-04-21T02:44:15.794Z,0
2023-04-21T02:50:38.838Z,0
2023-04-21T02:56:58.807Z,0
2023-04-21T03:03:21.866Z,0
2023-04-21T03:09:41.849Z,0
2023-04-21T03:32:29.792Z,0
2023-04-21T03:38:52.760Z,0
2023-04-21T03:45:12.837Z,0
2023-04-21T03:51:35.777Z,0
2023-04-21T03:57:55.765Z,0
2023-04-21T04:04:19.019Z,0
2023-04-21T04:10:38.863Z,0
2023-04-21T04:17:01.812Z,0
2023-04-21T04:23:21.859Z,0
2023-04-21T04:29:44.826Z,0
2023-04-21T04:36:04.859Z,0
2023-04-21T04:42:27.784Z,5.62
2023-04-21T04:48:47.819Z,5.62
2023-04-21T04:55:10.792Z,5.62
2023-04-21T05:01:31.064Z,5.62
2023-04-21T05:07:53.872Z,5.62
2023-04-21T05:14:13.792Z,5.62
2023-04-21T05:20:36.745Z,5.62
2023-04-21T05:26:56.777Z,5.62
2023-04-21T05:33:19.885Z,11.25
2023-04-21T05:39:39.826Z,11.25
2023-04-21T05:46:02.941Z,11.25
2023-04-21T05:52:22.740Z,11.25
2023-04-21T05:58:45.756Z,11.25
2023-04-21T06:05:05.978Z,11.25
2023-04-21T06:11:28.844Z,16.88
2023-04-21T06:17:48.996Z,16.88
2023-04-21T06:24:11.895Z,22.5
2023-04-21T06:30:31.845Z,16.88
2023-04-21T06:36:54.809Z,22.5
2023-04-21T06:43:14.768Z,22.5
2023-04-21T06:49:37.789Z,22.5
2023-04-21T06:55:57.794Z,28.12
2023-04-21T07:02:20.919Z,33.75
2023-04-21T07:08:40.900Z,33.75
2023-04-21T07:15:03.861Z,33.75
2023-04-21T07:21:23.839Z,39.38
2023-04-21T07:27:46.768Z,33.75
2023-04-21T07:34:06.836Z,33.75
2023-04-21T07:40:29.856Z,50.62
2023-04-21T07:46:49.817Z,50.62
2023-04-21T07:53:12.804Z,56.25
2023-04-21T07:59:32.951Z,56.25
2023-04-21T08:05:56.079Z,67.5
2023-04-21T08:12:15.771Z,73.12
2023-04-21T08:18:38.773Z,78.75
2023-04-21T08:36:12.465Z,78.75
2023-04-21T08:42:30.772Z,101.25
2023-04-21T08:48:51.448Z,61.88
2023-04-21T08:55:14.175Z,95.62
2023-04-21T09:01:34.068Z,101.25
2023-04-21T09:07:56.759Z,101.25
2023-04-21T09:14:16.806Z,67.5
2023-04-21T09:20:39.858Z,84.38
2023-04-21T09:26:59.746Z,95.62
2023-04-21T09:33:29.280Z,101.25
2023-04-21T09:39:49.517Z,140.62
2023-04-21T09:46:05.759Z,106.88
2023-04-21T09:52:25.816Z,106.88
2023-04-21T09:58:48.858Z,101.25
2023-04-21T10:05:08.847Z,78.75
2023-04-21T10:11:31.815Z,106.88
2023-04-21T10:17:51.758Z,84.38
2023-04-21T10:24:14.766Z,112.5
2023-04-21T10:30:34.782Z,123.75
2023-04-21T10:36:57.785Z,106.88
2023-04-21T10:43:17.756Z,67.5
2023-04-21T10:49:40.827Z,112.5
2023-04-21T10:56:00.745Z,118.12
2023-04-21T11:02:24.851Z,112.5
2023-04-21T11:08:44.809Z,129.38
2023-04-21T11:15:07.759Z,90
2023-04-21T11:21:27.776Z,90
2023-04-21T11:27:50.758Z,146.25
2023-04-21T11:34:10.757Z,135
2023-04-21T11:40:33.774Z,140.62
2023-04-21T11:46:53.753Z,146.25
2023-04-21T11:53:16.805Z,61.88
2023-04-21T11:59:36.772Z,151.88
2023-04-21T12:06:00.102Z,151.88
2023-04-21T12:12:19.739Z,106.88
2023-04-21T12:18:42.740Z,78.75
2023-04-21T12:25:02.816Z,90
2023-04-21T12:31:25.755Z,191.25
2023-04-21T12:37:45.824Z,185.62
2023-04-21T12:44:08.865Z,180
2023-04-21T12:50:28.902Z,185.62
2023-04-21T12:56:51.767Z,56.25
2023-04-21T13:03:11.904Z,101.25
2023-04-21T13:09:34.780Z,129.38
2023-04-21T13:15:54.746Z,67.5
2023-04-21T13:22:17.767Z,50.62
2023-04-21T13:28:37.788Z,56.25
2023-04-21T13:35:00.744Z,168.75
2023-04-21T13:41:20.805Z,174.38
2023-04-21T13:47:43.799Z,174.38
2023-04-21T13:54:03.751Z,185.62
2023-04-21T14:11:37.737Z,174.38
2023-04-21T14:17:57.796Z,174.38
2023-04-21T14:24:20.805Z,180
2023-04-21T14:30:40.841Z,129.38
2023-04-21T14:37:03.753Z,157.5
2023-04-21T14:43:23.800Z,151.88
2023-04-21T14:49:46.764Z,151.88
2023-04-21T14:56:06.792Z,140.62
2023-04-21T15:02:29.880Z,151.88
2023-04-21T15:08:49.763Z,151.88
2023-04-21T15:15:12.869Z,101.25
2023-04-21T15:21:32.745Z,50.62
2023-04-21T15:27:55.771Z,129.38
2023-04-21T15:34:15.775Z,67.5
2023-04-21T15:40:46.556Z,146.25
2023-04-21T15:46:58.873Z,157.5
2023-04-21T15:53:21.734Z,84.38
2023-04-21T15:59:41.751Z,73.12
2023-04-21T16:06:04.891Z,84.38
2023-04-21T16:12:24.736Z,168.75
2023-04-21T16:18:47.813Z,67.5
2023-04-21T16:25:07.960Z,45
2023-04-21T16:31:30.801Z,95.62
2023-04-21T16:37:50.753Z,208.12
2023-04-21T16:44:13.754Z,135
2023-04-21T16:50:33.783Z,129.38
2023-04-21T16:56:56.732Z,118.12
2023-04-21T17:03:16.805Z,95.62
2023-04-21T17:09:39.752Z,73.12
2023-04-21T17:15:59.721Z,67.5
2023-04-21T17:22:22.816Z,61.88
2023-04-21T17:28:42.739Z,45
2023-04-21T17:35:05.830Z,11.25
2023-04-21T17:41:25.787Z,11.25
2023-04-21T17:47:48.730Z,16.88
2023-04-21T17:54:08.790Z,11.25
2023-04-21T18:00:31.767Z,5.62
2023-04-21T18:06:51.782Z,0
2023-04-21T18:13:14.774Z,0
2023-04-21T18:19:34.797Z,0
2023-04-21T18:25:57.782Z,0
2023-04-21T18:32:17.726Z,0
2023-04-21T18:38:40.771Z,0
2023-04-21T18:45:02.317Z,0
2023-04-21T18:51:23.751Z,0
2023-04-21T18:57:43.799Z,0
2023-04-21T19:04:06.806Z,0
2023-04-21T19:10:26.736Z,0
2023-04-21T19:16:49.836Z,0
2023-04-21T19:23:09.760Z,0
2023-04-21T19:29:32.785Z,0
2023-04-21T19:35:52.775Z,0
2023-04-21T19:42:15.732Z,0
2023-04-21T20:06:15.990Z,0
2023-04-21T20:12:35.727Z,0
2023-04-21T20:18:58.766Z,0
2023-04-21T20:25:18.790Z,0
2023-04-21T20:31:41.742Z,0
2023-04-21T20:38:01.774Z,0
2023-04-21T20:44:24.771Z,0
2023-04-21T20:50:45.777Z,0
2023-04-21T20:57:07.826Z,0
2023-04-21T21:03:27.862Z,0
2023-04-21T21:09:50.779Z,0
2023-04-21T21:16:10.741Z,0
2023-04-21T21:22:33.764Z,0
2023-04-21T21:28:53.759Z,0
2023-04-21T21:35:16.742Z,0
2023-04-21T21:41:36.834Z,0
2023-04-21T21:47:59.798Z,0
2023-04-21T21:54:19.741Z,0
2023-04-21T22:19:53.756Z,0
2023-04-21T22:26:13.792Z,0
2023-04-21T22:32:36.787Z,0
2023-04-21T22:38:56.838Z,0
2023-04-21T22:45:19.834Z,0
2023-04-21T22:51:39.784Z,0
2023-04-21T22:58:02.752Z,0
2023-04-21T23:04:22.884Z,0
2023-04-21T23:10:45.761Z,0
2023-04-21T23:17:05.814Z,0
2023-04-21T23:23:28.735Z,0
2023-04-21T23:29:48.809Z,0
2023-04-21T23:36:11.780Z,0
2023-04-21T23:42:31.819Z,0
2023-04-21T23:48:54.827Z,0
2023-04-21T23:55:14.859Z,0
